sensor_id;sensor_type;location;lat;lon;timestamp;P1;durP1;ratioP1;P2;durP2;ratioP2
78672;SDS011;67988;60.086;30.354;2023-06-26T03:44:12;6.30;;;5.32;;
78672;SDS011;67988;60.086;30.354;2023-06-26T03:46:46;6.40;;;4.25;;
78672;SDS011;67988;60.086;30.354;2023-06-26T03:49:13;8.40;;;4.75;;
78672;SDS011;67988;60.086;30.354;2023-06-26T03:51:40;8.10;;;5.75;;
78672;SDS011;67988;60.086;30.354;2023-06-26T03:54:07;8.48;;;5.72;;
78672;SDS011;67988;60.086;30.354;2023-06-26T03:56:34;6.43;;;4.40;;
78672;SDS011;67988;60.086;30.354;2023-06-26T03:59:01;6.88;;;4.40;;
78672;SDS011;67988;60.086;30.354;2023-06-26T04:01:30;7.18;;;4.68;;
78672;SDS011;67988;60.086;30.354;2023-06-26T04:03:57;7.20;;;5.30;;
78672;SDS011;67988;60.086;30.354;2023-06-26T04:06:24;8.00;;;4.97;;
78672;SDS011;67988;60.086;30.354;2023-06-26T04:08:51;7.88;;;5.07;;
78672;SDS011;67988;60.086;30.354;2023-06-26T04:11:18;8.05;;;5.93;;
78672;SDS011;67988;60.086;30.354;2023-06-26T04:13:45;7.57;;;5.57;;
78672;SDS011;67988;60.086;30.354;2023-06-26T04:16:12;7.55;;;5.20;;
78672;SDS011;67988;60.086;30.354;2023-06-26T04:18:40;8.98;;;5.63;;
78672;SDS011;67988;60.086;30.354;2023-06-26T04:21:07;7.25;;;4.95;;
78672;SDS011;67988;60.086;30.354;2023-06-26T04:23:36;6.82;;;5.88;;
78672;SDS011;67988;60.086;30.354;2023-06-26T04:26:04;7.45;;;5.68;;
78672;SDS011;67988;60.086;30.354;2023-06-26T04:28:31;8.63;;;5.90;;
78672;SDS011;67988;60.086;30.354;2023-06-26T04:30:58;9.55;;;5.75;;
78672;SDS011;67988;60.086;30.354;2023-06-26T04:33:26;11.80;;;5.82;;
78672;SDS011;67988;60.086;30.354;2023-06-26T04:35:54;6.07;;;5.00;;
78672;SDS011;67988;60.086;30.354;2023-06-26T04:38:22;9.30;;;5.25;;
78672;SDS011;67988;60.086;30.354;2023-06-26T04:40:49;6.97;;;5.95;;
78672;SDS011;67988;60.086;30.354;2023-06-26T04:43:16;7.43;;;5.18;;
78672;SDS011;67988;60.086;30.354;2023-06-26T04:45:43;7.60;;;5.55;;
78672;SDS011;67988;60.086;30.354;2023-06-26T04:48:10;7.82;;;4.57;;
78672;SDS011;67988;60.086;30.354;2023-06-26T04:50:37;8.38;;;5.05;;
78672;SDS011;67988;60.086;30.354;2023-06-26T04:53:06;7.70;;;5.13;;
78672;SDS011;67988;60.086;30.354;2023-06-26T04:55:32;6.63;;;5.03;;
78672;SDS011;67988;60.086;30.354;2023-06-26T04:57:59;6.82;;;4.78;;
78672;SDS011;67988;60.086;30.354;2023-06-26T05:00:26;7.78;;;4.65;;
78672;SDS011;67988;60.086;30.354;2023-06-26T05:02:53;6.88;;;5.03;;
78672;SDS011;67988;60.086;30.354;2023-06-26T05:05:26;8.07;;;4.93;;
78672;SDS011;67988;60.086;30.354;2023-06-26T05:07:54;6.93;;;4.80;;
78672;SDS011;67988;60.086;30.354;2023-06-26T05:10:23;8.48;;;4.93;;
78672;SDS011;67988;60.086;30.354;2023-06-26T05:12:50;7.88;;;4.25;;
78672;SDS011;67988;60.086;30.354;2023-06-26T05:15:17;5.55;;;4.97;;
78672;SDS011;67988;60.086;30.354;2023-06-26T05:17:44;5.03;;;4.18;;
78672;SDS011;67988;60.086;30.354;2023-06-26T05:20:11;8.13;;;4.25;;
78672;SDS011;67988;60.086;30.354;2023-06-26T05:22:38;10.23;;;4.47;;
78672;SDS011;67988;60.086;30.354;2023-06-26T05:25:07;5.03;;;4.18;;
78672;SDS011;67988;60.086;30.354;2023-06-26T05:27:38;7.07;;;5.25;;
78672;SDS011;67988;60.086;30.354;2023-06-26T05:30:05;6.72;;;4.50;;
78672;SDS011;67988;60.086;30.354;2023-06-26T05:32:34;10.45;;;5.25;;
78672;SDS011;67988;60.086;30.354;2023-06-26T05:35:02;10.23;;;4.32;;
78672;SDS011;67988;60.086;30.354;2023-06-26T05:37:30;8.25;;;4.25;;
78672;SDS011;67988;60.086;30.354;2023-06-26T05:39:58;5.63;;;4.25;;
78672;SDS011;67988;60.086;30.354;2023-06-26T05:44:54;6.10;;;4.07;;
78672;SDS011;67988;60.086;30.354;2023-06-26T05:47:21;5.22;;;3.08;;
78672;SDS011;67988;60.086;30.354;2023-06-26T05:49:49;7.93;;;4.18;;
78672;SDS011;67988;60.086;30.354;2023-06-26T05:52:16;4.85;;;3.90;;
78672;SDS011;67988;60.086;30.354;2023-06-26T05:54:43;6.43;;;4.15;;
78672;SDS011;67988;60.086;30.354;2023-06-26T05:57:11;8.55;;;4.15;;
78672;SDS011;67988;60.086;30.354;2023-06-26T05:59:40;8.10;;;3.28;;
78672;SDS011;67988;60.086;30.354;2023-06-26T06:02:10;7.53;;;3.60;;
78672;SDS011;67988;60.086;30.354;2023-06-26T06:04:38;6.05;;;3.28;;
78672;SDS011;67988;60.086;30.354;2023-06-26T06:07:05;5.93;;;2.97;;
78672;SDS011;67988;60.086;30.354;2023-06-26T06:09:32;5.00;;;3.45;;
78672;SDS011;67988;60.086;30.354;2023-06-26T06:11:59;7.57;;;3.13;;
78672;SDS011;67988;60.086;30.354;2023-06-26T06:14:29;4.55;;;3.20;;
78672;SDS011;67988;60.086;30.354;2023-06-26T06:16:56;4.50;;;2.65;;
78672;SDS011;67988;60.086;30.354;2023-06-26T06:19:24;11.57;;;3.75;;
78672;SDS011;67988;60.086;30.354;2023-06-26T06:21:51;7.13;;;3.67;;
78672;SDS011;67988;60.086;30.354;2023-06-26T06:24:18;7.60;;;3.28;;
78672;SDS011;67988;60.086;30.354;2023-06-26T06:26:45;7.28;;;3.28;;
78672;SDS011;67988;60.086;30.354;2023-06-26T06:29:12;7.72;;;2.90;;
78672;SDS011;67988;60.086;30.354;2023-06-26T06:31:39;4.40;;;2.45;;
78672;SDS011;67988;60.086;30.354;2023-06-26T06:34:06;7.80;;;2.83;;
78672;SDS011;67988;60.086;30.354;2023-06-26T06:36:35;7.15;;;3.00;;
78672;SDS011;67988;60.086;30.354;2023-06-26T06:39:02;4.85;;;3.22;;
78672;SDS011;67988;60.086;30.354;2023-06-26T06:43:56;7.03;;;2.97;;
78672;SDS011;67988;60.086;30.354;2023-06-26T06:46:23;7.00;;;3.75;;
78672;SDS011;67988;60.086;30.354;2023-06-26T06:48:52;5.03;;;3.33;;
78672;SDS011;67988;60.086;30.354;2023-06-26T06:51:19;6.75;;;3.83;;
78672;SDS011;67988;60.086;30.354;2023-06-26T06:53:47;4.28;;;2.95;;
78672;SDS011;67988;60.086;30.354;2023-06-26T06:56:14;7.53;;;2.97;;
78672;SDS011;67988;60.086;30.354;2023-06-26T06:58:41;4.60;;;2.78;;
78672;SDS011;67988;60.086;30.354;2023-06-26T07:01:09;5.07;;;4.25;;
78672;SDS011;67988;60.086;30.354;2023-06-26T07:06:02;7.30;;;3.00;;
78672;SDS011;67988;60.086;30.354;2023-06-26T07:08:30;5.22;;;3.15;;
78672;SDS011;67988;60.086;30.354;2023-06-26T07:10:58;6.65;;;3.10;;
78672;SDS011;67988;60.086;30.354;2023-06-26T07:13:25;4.35;;;2.80;;
78672;SDS011;67988;60.086;30.354;2023-06-26T07:15:52;4.93;;;2.85;;
78672;SDS011;67988;60.086;30.354;2023-06-26T07:18:19;4.30;;;2.70;;
78672;SDS011;67988;60.086;30.354;2023-06-26T07:20:46;6.55;;;3.15;;
78672;SDS011;67988;60.086;30.354;2023-06-26T07:23:13;6.53;;;3.30;;
78672;SDS011;67988;60.086;30.354;2023-06-26T07:25:40;11.05;;;3.30;;
78672;SDS011;67988;60.086;30.354;2023-06-26T07:28:10;11.52;;;3.40;;
78672;SDS011;67988;60.086;30.354;2023-06-26T07:30:38;8.05;;;3.38;;
78672;SDS011;67988;60.086;30.354;2023-06-26T07:33:05;7.05;;;3.08;;
78672;SDS011;67988;60.086;30.354;2023-06-26T07:35:33;5.13;;;3.30;;
78672;SDS011;67988;60.086;30.354;2023-06-26T07:38:00;7.32;;;3.20;;
78672;SDS011;67988;60.086;30.354;2023-06-26T07:40:27;5.88;;;3.38;;
78672;SDS011;67988;60.086;30.354;2023-06-26T07:42:54;5.40;;;3.15;;
78672;SDS011;67988;60.086;30.354;2023-06-26T07:45:24;6.40;;;3.28;;
78672;SDS011;67988;60.086;30.354;2023-06-26T07:47:51;6.78;;;3.60;;
78672;SDS011;67988;60.086;30.354;2023-06-26T07:50:18;6.47;;;3.58;;
78672;SDS011;67988;60.086;30.354;2023-06-26T07:52:48;14.43;;;4.60;;
78672;SDS011;67988;60.086;30.354;2023-06-26T07:55:17;4.32;;;2.72;;
78672;SDS011;67988;60.086;30.354;2023-06-26T20:11:28;8.18;;;4.32;;
78672;SDS011;67988;60.086;30.354;2023-06-26T20:13:55;7.78;;;4.75;;
78672;SDS011;67988;60.086;30.354;2023-06-26T20:16:22;9.65;;;5.18;;
78672;SDS011;67988;60.086;30.354;2023-06-26T20:18:49;10.80;;;6.53;;
78672;SDS011;67988;60.086;30.354;2023-06-26T20:21:16;7.40;;;4.50;;
78672;SDS011;67988;60.086;30.354;2023-06-26T20:23:43;8.98;;;5.30;;
78672;SDS011;67988;60.086;30.354;2023-06-26T20:26:11;11.10;;;5.47;;
78672;SDS011;67988;60.086;30.354;2023-06-26T20:28:40;9.95;;;5.85;;
78672;SDS011;67988;60.086;30.354;2023-06-26T20:31:07;11.10;;;6.05;;
78672;SDS011;67988;60.086;30.354;2023-06-26T20:33:35;8.35;;;5.72;;
78672;SDS011;67988;60.086;30.354;2023-06-26T20:36:02;14.20;;;5.70;;
78672;SDS011;67988;60.086;30.354;2023-06-26T20:40:57;12.35;;;5.05;;
78672;SDS011;67988;60.086;30.354;2023-06-26T20:43:25;8.32;;;5.50;;
78672;SDS011;67988;60.086;30.354;2023-06-26T20:45:54;10.48;;;5.30;;
78672;SDS011;67988;60.086;30.354;2023-06-26T20:48:22;10.40;;;5.53;;
78672;SDS011;67988;60.086;30.354;2023-06-26T20:50:51;9.35;;;5.93;;
78672;SDS011;67988;60.086;30.354;2023-06-26T20:53:18;8.23;;;5.50;;
78672;SDS011;67988;60.086;30.354;2023-06-26T20:55:46;7.72;;;4.85;;
78672;SDS011;67988;60.086;30.354;2023-06-26T21:00:40;8.80;;;4.97;;
78672;SDS011;67988;60.086;30.354;2023-06-26T21:03:08;8.00;;;5.57;;
78672;SDS011;67988;60.086;30.354;2023-06-26T21:05:35;10.00;;;5.53;;
78672;SDS011;67988;60.086;30.354;2023-06-26T21:08:02;11.23;;;5.70;;
78672;SDS011;67988;60.086;30.354;2023-06-26T21:10:30;9.90;;;6.03;;
78672;SDS011;67988;60.086;30.354;2023-06-26T21:12:57;8.07;;;5.32;;
78672;SDS011;67988;60.086;30.354;2023-06-26T21:15:24;9.93;;;5.38;;
78672;SDS011;67988;60.086;30.354;2023-06-26T21:17:51;9.63;;;5.25;;
78672;SDS011;67988;60.086;30.354;2023-06-26T21:20:20;10.23;;;7.60;;
78672;SDS011;67988;60.086;30.354;2023-06-26T21:22:47;9.60;;;6.10;;
78672;SDS011;67988;60.086;30.354;2023-06-26T21:25:14;8.63;;;5.60;;
78672;SDS011;67988;60.086;30.354;2023-06-26T21:27:41;7.28;;;4.88;;
78672;SDS011;67988;60.086;30.354;2023-06-26T21:30:08;8.32;;;5.75;;
78672;SDS011;67988;60.086;30.354;2023-06-26T21:32:36;10.23;;;5.63;;
78672;SDS011;67988;60.086;30.354;2023-06-26T21:35:04;10.25;;;5.68;;
78672;SDS011;67988;60.086;30.354;2023-06-26T21:37:33;9.82;;;5.75;;
78672;SDS011;67988;60.086;30.354;2023-06-26T21:39:59;9.93;;;6.05;;
78672;SDS011;67988;60.086;30.354;2023-06-26T21:42:27;9.80;;;5.88;;
78672;SDS011;67988;60.086;30.354;2023-06-26T21:44:54;9.27;;;5.43;;
78672;SDS011;67988;60.086;30.354;2023-06-26T21:47:21;10.82;;;6.07;;
78672;SDS011;67988;60.086;30.354;2023-06-26T21:49:48;8.73;;;5.53;;
78672;SDS011;67988;60.086;30.354;2023-06-26T21:52:15;11.82;;;5.90;;
78672;SDS011;67988;60.086;30.354;2023-06-26T21:54:43;9.80;;;6.95;;
78672;SDS011;67988;60.086;30.354;2023-06-26T21:57:10;8.55;;;5.40;;
78672;SDS011;67988;60.086;30.354;2023-06-26T21:59:37;12.73;;;6.25;;
78672;SDS011;67988;60.086;30.354;2023-06-26T22:02:04;7.53;;;5.30;;
78672;SDS011;67988;60.086;30.354;2023-06-26T22:04:32;9.65;;;5.97;;
78672;SDS011;67988;60.086;30.354;2023-06-26T22:06:59;9.63;;;6.43;;
78672;SDS011;67988;60.086;30.354;2023-06-26T22:09:26;9.60;;;6.10;;
78672;SDS011;67988;60.086;30.354;2023-06-26T22:11:54;9.25;;;5.60;;
78672;SDS011;67988;60.086;30.354;2023-06-26T22:14:23;12.00;;;5.47;;
78672;SDS011;67988;60.086;30.354;2023-06-26T22:16:50;7.50;;;4.88;;
78672;SDS011;67988;60.086;30.354;2023-06-26T22:19:17;9.30;;;5.55;;
78672;SDS011;67988;60.086;30.354;2023-06-26T22:21:44;8.88;;;5.78;;
78672;SDS011;67988;60.086;30.354;2023-06-26T22:24:11;9.48;;;6.10;;
78672;SDS011;67988;60.086;30.354;2023-06-26T22:26:39;8.85;;;5.57;;
78672;SDS011;67988;60.086;30.354;2023-06-26T22:29:08;8.70;;;5.93;;
78672;SDS011;67988;60.086;30.354;2023-06-26T22:31:35;7.65;;;5.43;;
78672;SDS011;67988;60.086;30.354;2023-06-26T22:34:02;9.57;;;5.35;;
78672;SDS011;67988;60.086;30.354;2023-06-26T22:36:29;7.00;;;4.30;;
78672;SDS011;67988;60.086;30.354;2023-06-26T22:38:56;7.53;;;5.30;;
78672;SDS011;67988;60.086;30.354;2023-06-26T22:41:23;8.82;;;5.40;;
78672;SDS011;67988;60.086;30.354;2023-06-26T22:43:50;9.27;;;4.82;;
78672;SDS011;67988;60.086;30.354;2023-06-26T22:46:19;8.55;;;5.80;;
78672;SDS011;67988;60.086;30.354;2023-06-26T22:48:46;9.77;;;5.18;;
78672;SDS011;67988;60.086;30.354;2023-06-26T22:51:13;8.98;;;5.97;;
78672;SDS011;67988;60.086;30.354;2023-06-26T22:53:40;9.07;;;6.13;;
78672;SDS011;67988;60.086;30.354;2023-06-26T22:56:07;8.80;;;4.93;;
78672;SDS011;67988;60.086;30.354;2023-06-26T22:58:34;9.57;;;6.65;;
78672;SDS011;67988;60.086;30.354;2023-06-26T23:01:01;11.07;;;6.35;;
78672;SDS011;67988;60.086;30.354;2023-06-26T23:03:29;9.52;;;5.75;;
78672;SDS011;67988;60.086;30.354;2023-06-26T23:05:56;8.10;;;5.25;;
78672;SDS011;67988;60.086;30.354;2023-06-26T23:08:23;10.25;;;6.15;;
78672;SDS011;67988;60.086;30.354;2023-06-26T23:13:18;9.35;;;5.43;;
78672;SDS011;67988;60.086;30.354;2023-06-26T23:15:45;9.70;;;5.18;;
78672;SDS011;67988;60.086;30.354;2023-06-26T23:18:12;11.38;;;5.75;;
78672;SDS011;67988;60.086;30.354;2023-06-26T23:20:40;8.18;;;5.25;;
78672;SDS011;67988;60.086;30.354;2023-06-26T23:23:07;6.10;;;4.47;;
78672;SDS011;67988;60.086;30.354;2023-06-26T23:25:34;9.48;;;5.68;;
78672;SDS011;67988;60.086;30.354;2023-06-26T23:28:02;8.00;;;4.55;;
78672;SDS011;67988;60.086;30.354;2023-06-26T23:30:29;8.68;;;5.78;;
78672;SDS011;67988;60.086;30.354;2023-06-26T23:32:57;9.95;;;5.30;;
78672;SDS011;67988;60.086;30.354;2023-06-26T23:35:25;8.90;;;6.10;;
78672;SDS011;67988;60.086;30.354;2023-06-26T23:37:53;8.95;;;5.82;;
78672;SDS011;67988;60.086;30.354;2023-06-26T23:40:21;8.70;;;5.72;;
78672;SDS011;67988;60.086;30.354;2023-06-26T23:42:48;8.82;;;5.90;;
78672;SDS011;67988;60.086;30.354;2023-06-26T23:45:16;9.52;;;4.97;;
78672;SDS011;67988;60.086;30.354;2023-06-26T23:47:46;9.60;;;5.68;;
78672;SDS011;67988;60.086;30.354;2023-06-26T23:50:13;12.23;;;5.30;;
78672;SDS011;67988;60.086;30.354;2023-06-26T23:52:40;7.95;;;5.68;;
78672;SDS011;67988;60.086;30.354;2023-06-26T23:55:10;10.00;;;5.93;;
78672;SDS011;67988;60.086;30.354;2023-06-26T23:57:38;10.65;;;6.07;;
